Time;durP1;ratioP1;P1;durP2;ratioP2;P2;SDS_P1;SDS_P2;PMS_P1;PMS_P2;Temp;Humidity;BMP_temperature;BMP_pressure;BME280_temperature;BME280_humidity;BME280_pressure;Samples;Min_cycle;Max_cycle;Signal;HPM_P1;HPM_P2
2023/05/03 00:01:49;;;;;;;;;;;;;;;13.39;68.63;95416.09;5094713;28;957;-54
2023/05/03 00:04:17;;;;;;;;;;;;;;;13.44;67.80;95416.38;5094522;28;1033;-54
2023/05/03 00:06:43;;;;;;;;;;;;;;;13.50;65.82;95416.72;5093984;28;916;-54
2023/05/03 00:09:10;;;;;;;;;;;;;;;13.51;68.13;95413.88;5094419;28;969;-54
2023/05/03 00:11:36;;;;;;;;;;;;;;;13.51;69.21;95419.25;5094583;28;1979;-54
2023/05/03 00:14:02;;;;;;;;;;;;;;;13.51;69.63;95415.69;5094569;28;1047;-54
2023/05/03 00:16:28;;;;;;;;;;;;;;;13.52;70.33;95417.38;5094499;28;1055;-54
2023/05/03 00:18:54;;;;;;;;;;;;;;;13.48;69.95;95409.66;5094266;28;1085;-54
2023/05/03 00:21:20;;;;;;;;;;;;;;;13.42;69.82;95420.28;5094051;28;1096;-54
2023/05/03 00:23:46;;;;;;;;;;;;;;;13.33;71.08;95424.81;5094187;28;1037;-54
2023/05/03 00:26:12;;;;;;;;;;;;;;;13.31;70.32;95426.00;5094380;28;1166;-54
2023/05/03 00:28:38;;;;;;;;;;;;;;;13.21;70.37;95427.00;5094351;28;1006;-54
2023/05/03 00:31:08;;;;;;;;;;;;;;;13.22;69.58;95417.09;5094002;28;1985;-54
2023/05/03 00:33:35;;;;;;;;;;;;;;;13.19;68.67;95420.97;5093018;28;1001;-54
2023/05/03 00:36:08;;;;;;;;;;;;;;;13.12;68.80;95413.75;5094021;28;1529;-54
2023/05/03 00:38:34;;;;;;;;;;;;;;;13.04;67.36;95417.28;5093964;28;1028;-54
2023/05/03 00:41:00;;;;;;;;;;;;;;;12.98;66.86;95408.06;5094165;28;957;-54
2023/05/03 00:43:26;;;;;;;;;;;;;;;12.98;66.62;95413.44;5094088;28;1061;-54
2023/05/03 00:45:53;;;;;;;;;;;;;;;13.24;64.46;95418.59;5093828;28;1049;-54
2023/05/03 00:48:19;;;;;;;;;;;;;;;13.40;63.48;95409.69;5093823;28;1112;-54
2023/05/03 00:50:46;;;;;;;;;;;;;;;13.41;64.28;95413.22;5093769;28;1906;-54
2023/05/03 00:53:12;;;;;;;;;;;;;;;13.48;64.48;95409.66;5093751;28;1029;-54
2023/05/03 00:55:39;;;;;;;;;;;;;;;13.52;63.48;95395.91;5093693;28;1065;-54
2023/05/03 00:58:05;;;;;;;;;;;;;;;13.60;63.52;95394.03;5093853;28;1044;-54
2023/05/03 01:00:31;;;;;;;;;;;;;;;13.61;63.57;95389.47;5093902;28;976;-54
2023/05/03 01:02:58;;;;;;;;;;;;;;;13.60;63.12;95393.16;5093742;28;1064;-54
2023/05/03 01:05:25;;;;;;;;;;;;;;;13.35;65.30;95401.31;5093681;28;1025;-54
2023/05/03 01:08:00;;;;;;;;;;;;;;;13.30;66.25;95395.63;5093514;28;1065;-54
2023/05/03 01:10:46;;;;;;;;;;;;;;;13.40;63.62;95380.16;5093711;28;1991;-54
2023/05/03 01:13:27;;;;;;;;;;;;;;;13.25;59.85;95376.47;5093698;28;1004;-54
2023/05/03 01:15:59;;;;;;;;;;;;;;;13.31;60.53;95378.50;5093534;28;1847;-54
2023/05/03 01:18:31;;;;;;;;;;;;;;;13.25;61.83;95374.63;5095690;28;1051;-54
2023/05/03 01:20:58;;;;;;;;;;;;;;;13.35;60.46;95382.50;5097477;28;1085;-54
2023/05/03 01:23:32;;;;;;;;;;;;;;;13.62;59.00;95381.25;5097756;28;973;-54
2023/05/03 01:25:58;;;;;;;;;;;;;;;13.74;58.84;95370.13;5097574;28;1093;-54
2023/05/03 01:28:24;;;;;;;;;;;;;;;13.82;59.23;95367.38;5097569;28;981;-54
2023/05/03 01:30:51;;;;;;;;;;;;;;;13.67;62.90;95362.75;5097363;28;1985;-54
2023/05/03 01:33:35;;;;;;;;;;;;;;;13.61;58.92;95373.38;5097607;28;1031;-54
2023/05/03 01:36:11;;;;;;;;;;;;;;;13.56;61.11;95387.31;5097564;28;977;-54
2023/05/03 01:38:37;;;;;;;;;;;;;;;13.50;60.91;95382.63;5097402;28;972;-54
2023/05/03 01:41:09;;;;;;;;;;;;;;;13.42;60.65;95371.94;5097325;28;958;-54
2023/05/03 01:43:36;;;;;;;;;;;;;;;13.47;59.74;95377.63;5097432;28;1035;-54
2023/05/03 01:46:02;;;;;;;;;;;;;;;13.58;58.89;95379.06;5097365;28;1051;-54
2023/05/03 01:48:28;;;;;;;;;;;;;;;13.62;59.17;95389.31;5097140;28;1124;-54
2023/05/03 01:50:54;;;;;;;;;;;;;;;13.59;59.67;95389.66;5097360;28;1988;-55
2023/05/03 01:53:20;;;;;;;;;;;;;;;13.66;58.98;95381.75;5097144;28;1028;-54
2023/05/03 01:55:46;;;;;;;;;;;;;;;13.79;57.96;95383.84;5097015;28;958;-54
2023/05/03 01:58:12;;;;;;;;;;;;;;;13.85;58.47;95386.69;5097166;28;1012;-54
2023/05/03 02:00:38;;;;;;;;;;;;;;;13.79;59.83;95390.09;5096884;28;1100;-54
2023/05/03 02:03:04;;;;;;;;;;;;;;;13.54;64.15;95378.59;5096888;28;1061;-54
2023/05/03 02:05:30;;;;;;;;;;;;;;;13.38;64.49;95378.66;5096982;28;988;-54
2023/05/03 02:07:56;;;;;;;;;;;;;;;13.21;65.14;95392.09;5096850;28;1056;-54
2023/05/03 02:10:22;;;;;;;;;;;;;;;13.08;66.30;95392.59;5096577;28;1909;-54
2023/05/03 02:12:48;;;;;;;;;;;;;;;13.14;67.29;95376.84;5096973;28;1039;-54
2023/05/03 02:15:15;;;;;;;;;;;;;;;13.12;66.28;95384.22;5096922;28;1043;-54
2023/05/03 02:17:41;;;;;;;;;;;;;;;13.16;65.66;95386.38;5096762;28;956;-54
2023/05/03 02:20:11;;;;;;;;;;;;;;;13.26;66.53;95386.19;5096641;28;1027;-54
2023/05/03 02:22:37;;;;;;;;;;;;;;;13.22;66.56;95374.97;5096361;28;1223;-54
2023/05/03 02:25:03;;;;;;;;;;;;;;;13.16;67.02;95372.13;5095197;28;965;-54
2023/05/03 02:27:30;;;;;;;;;;;;;;;12.99;70.63;95374.84;5096413;28;1057;-54
2023/05/03 02:29:56;;;;;;;;;;;;;;;12.88;70.01;95377.88;5095929;28;1991;-54
2023/05/03 02:32:22;;;;;;;;;;;;;;;12.96;71.33;95383.25;5096485;28;1056;-54
2023/05/03 02:34:48;;;;;;;;;;;;;;;12.68;72.66;95378.25;5096390;28;1001;-54
2023/05/03 02:37:15;;;;;;;;;;;;;;;12.57;74.08;95383.94;5096244;28;1038;-54
2023/05/03 02:39:41;;;;;;;;;;;;;;;12.56;73.45;95370.69;5096139;28;1042;-54
2023/05/03 02:42:08;;;;;;;;;;;;;;;12.64;72.12;95370.72;5096422;28;1068;-54
2023/05/03 02:44:34;;;;;;;;;;;;;;;12.54;74.23;95373.56;5096045;28;1104;-54
2023/05/03 02:47:00;;;;;;;;;;;;;;;12.41;75.42;95371.38;5096018;28;1058;-54
2023/05/03 02:49:26;;;;;;;;;;;;;;;12.40;75.37;95368.84;5095901;28;1128;-54
2023/05/03 02:51:52;;;;;;;;;;;;;;;12.40;76.30;95368.84;5094737;28;2001;-54
2023/05/03 02:54:18;;;;;;;;;;;;;;;12.25;76.55;95380.22;5095842;28;1034;-54
2023/05/03 02:56:44;;;;;;;;;;;;;;;12.27;76.51;95374.69;5096089;28;989;-54
2023/05/03 02:59:11;;;;;;;;;;;;;;;12.20;78.09;95369.19;5095824;28;1052;-54
2023/05/03 03:01:37;;;;;;;;;;;;;;;12.26;78.08;95373.88;5095969;28;1021;-54
2023/05/03 03:04:04;;;;;;;;;;;;;;;12.40;76.97;95374.22;5094611;28;1124;-54
2023/05/03 03:06:30;;;;;;;;;;;;;;;12.29;77.94;95376.22;5095753;28;1095;-54
2023/05/03 03:08:56;;;;;;;;;;;;;;;12.11;77.53;95380.91;5095649;28;988;-54
2023/05/03 03:11:22;;;;;;;;;;;;;;;12.03;78.24;95371.00;5095762;28;1991;-54
2023/05/03 03:13:48;;;;;;;;;;;;;;;12.05;79.09;95379.72;5095736;28;1036;-54
2023/05/03 03:16:14;;;;;;;;;;;;;;;12.18;78.72;95381.91;5095606;28;1040;-54
2023/05/03 03:18:41;;;;;;;;;;;;;;;12.21;78.33;95386.09;5095479;28;1028;-54
2023/05/03 03:21:07;;;;;;;;;;;;;;;12.22;78.16;95393.16;5095163;28;1117;-54
2023/05/03 03:23:33;;;;;;;;;;;;;;;12.23;77.62;95401.00;5095328;28;1116;-54
2023/05/03 03:26:00;;;;;;;;;;;;;;;12.21;77.87;95405.69;5095529;28;1009;-54
2023/05/03 03:28:26;;;;;;;;;;;;;;;12.21;76.42;95405.69;5095484;28;981;-54
2023/05/03 03:30:52;;;;;;;;;;;;;;;12.28;76.89;95409.41;5095284;28;1914;-54
2023/05/03 03:33:18;;;;;;;;;;;;;;;12.12;75.89;95414.72;5093994;28;1112;-54
2023/05/03 03:35:44;;;;;;;;;;;;;;;11.97;77.13;95419.03;5095168;28;1067;-54
2023/05/03 03:38:10;;;;;;;;;;;;;;;11.93;78.59;95425.72;5095032;28;1065;-53
2023/05/03 03:40:36;;;;;;;;;;;;;;;11.90;77.60;95427.72;5094288;28;986;-54
2023/05/03 03:43:03;;;;;;;;;;;;;;;12.05;77.91;95429.78;5095140;28;982;-53
2023/05/03 03:45:29;;;;;;;;;;;;;;;12.24;76.53;95428.66;5093881;28;1046;-53
2023/05/03 03:47:56;;;;;;;;;;;;;;;12.35;76.96;95436.41;5094997;28;965;-54
2023/05/03 03:50:25;;;;;;;;;;;;;;;12.45;75.75;95438.94;5094757;28;1937;-54
2023/05/03 03:52:51;;;;;;;;;;;;;;;12.44;75.66;95445.28;5094809;28;1024;-53
2023/05/03 03:55:18;;;;;;;;;;;;;;;12.37;78.55;95452.31;5094672;28;1102;-54
2023/05/03 03:57:44;;;;;;;;;;;;;;;12.26;78.03;95459.66;5094557;28;1112;-54
2023/05/03 04:00:11;;;;;;;;;;;;;;;12.26;78.75;95459.66;5094759;28;961;-54
2023/05/03 04:02:37;;;;;;;;;;;;;;;12.33;76.86;95469.72;5094745;28;977;-54
2023/05/03 04:05:03;;;;;;;;;;;;;;;12.43;75.94;95478.47;5094545;28;1028;-53
2023/05/03 04:07:29;;;;;;;;;;;;;;;12.60;70.80;95479.34;5094443;28;1041;-54
2023/05/03 04:09:57;;;;;;;;;;;;;;;12.49;75.08;95472.44;5094345;28;2003;-54
2023/05/03 04:12:23;;;;;;;;;;;;;;;12.52;72.52;95482.00;5094390;28;1096;-53
2023/05/03 04:14:49;;;;;;;;;;;;;;;12.53;67.57;95483.69;5094476;28;992;-53
2023/05/03 04:17:15;;;;;;;;;;;;;;;12.49;68.53;95492.06;5094412;28;962;-53
2023/05/03 04:19:42;;;;;;;;;;;;;;;12.48;66.27;95484.16;5094244;28;973;-53
2023/05/03 04:22:08;;;;;;;;;;;;;;;12.46;64.60;95484.34;5093966;28;1219;-53
2023/05/03 04:24:38;;;;;;;;;;;;;;;12.42;62.96;95501.75;5094428;28;1051;-53
2023/05/03 04:27:04;;;;;;;;;;;;;;;12.49;65.30;95512.69;5094325;28;1044;-53
2023/05/03 04:29:30;;;;;;;;;;;;;;;12.46;64.47;95511.16;5094244;28;993;-53
2023/05/03 04:31:56;;;;;;;;;;;;;;;12.40;68.44;95510.97;5094044;28;1882;-53
2023/05/03 04:34:23;;;;;;;;;;;;;;;12.27;68.70;95509.63;5093989;28;990;-53
2023/05/03 04:36:49;;;;;;;;;;;;;;;12.33;68.73;95508.13;5093952;28;1036;-53
2023/05/03 04:39:15;;;;;;;;;;;;;;;12.34;66.29;95517.81;5093966;28;1278;-53
2023/05/03 04:41:41;;;;;;;;;;;;;;;12.29;67.57;95517.47;5093829;28;1073;-53
2023/05/03 04:44:07;;;;;;;;;;;;;;;12.30;68.15;95522.69;5092694;28;1096;-53
2023/05/03 04:46:33;;;;;;;;;;;;;;;12.28;67.90;95515.81;5093769;28;1113;-54
2023/05/03 04:49:00;;;;;;;;;;;;;;;12.35;69.07;95532.06;5093831;28;981;-54
2023/05/03 04:51:27;;;;;;;;;;;;;;;12.35;68.83;95524.88;5093498;28;1902;-54
2023/05/03 04:53:53;;;;;;;;;;;;;;;12.40;70.15;95522.53;5093934;28;1028;-54
2023/05/03 04:56:24;;;;;;;;;;;;;;;12.54;70.60;95529.13;5093929;28;1032;-54
2023/05/03 04:58:51;;;;;;;;;;;;;;;12.66;70.82;95518.91;5093729;28;1037;-54
2023/05/03 05:01:18;;;;;;;;;;;;;;;12.74;70.75;95526.13;5093720;28;1047;-54
2023/05/03 05:03:44;;;;;;;;;;;;;;;12.69;71.09;95522.13;5092527;28;993;-54
2023/05/03 05:06:11;;;;;;;;;;;;;;;12.59;72.89;95534.81;5093587;28;1051;-54
2023/05/03 05:08:37;;;;;;;;;;;;;;;12.56;75.29;95528.94;5093826;28;992;-54
2023/05/03 05:11:04;;;;;;;;;;;;;;;12.53;76.25;95530.13;5093741;28;1994;-55
2023/05/03 05:13:30;;;;;;;;;;;;;;;12.42;77.20;95527.75;5093682;28;969;-55
2023/05/03 05:15:56;;;;;;;;;;;;;;;12.38;77.58;95534.44;5093565;28;1109;-55
2023/05/03 05:18:22;;;;;;;;;;;;;;;12.37;78.80;95530.91;5093573;28;985;-55
2023/05/03 05:20:48;;;;;;;;;;;;;;;12.29;78.97;95526.38;5093103;28;1136;-56
2023/05/03 05:23:15;;;;;;;;;;;;;;;12.38;80.99;95513.81;5093760;28;1086;-55
2023/05/03 05:25:41;;;;;;;;;;;;;;;12.37;83.07;95509.47;5093599;28;1048;-55
2023/05/03 05:28:08;;;;;;;;;;;;;;;12.47;83.23;95512.00;5093394;28;1109;-55
2023/05/03 05:30:34;;;;;;;;;;;;;;;12.59;79.90;95499.13;5093346;28;1902;-55
2023/05/03 05:33:00;;;;;;;;;;;;;;;12.81;81.14;95505.69;5093416;28;985;-55
2023/05/03 05:35:27;;;;;;;;;;;;;;;12.94;78.91;95503.34;5093670;28;1009;-54
2023/05/03 05:37:53;;;;;;;;;;;;;;;13.15;77.17;95505.53;5093598;28;1074;-54
2023/05/03 05:40:19;;;;;;;;;;;;;;;13.35;78.65;95514.09;5093478;28;962;-54
2023/05/03 05:42:45;;;;;;;;;;;;;;;13.54;78.99;95514.75;5093422;28;989;-54
2023/05/03 05:45:11;;;;;;;;;;;;;;;13.49;77.86;95515.28;5093287;28;1045;-54
2023/05/03 05:47:37;;;;;;;;;;;;;;;13.47;78.02;95522.66;5093322;28;972;-54
2023/05/03 05:50:04;;;;;;;;;;;;;;;13.30;70.98;95524.53;5093035;28;1905;-55
2023/05/03 05:52:30;;;;;;;;;;;;;;;13.19;74.65;95530.22;5093402;28;966;-55
2023/05/03 05:54:56;;;;;;;;;;;;;;;13.17;71.71;95527.69;5093406;28;1056;-55
2023/05/03 05:57:23;;;;;;;;;;;;;;;13.04;72.39;95522.81;5093200;28;1108;-56
2023/05/03 05:59:49;;;;;;;;;;;;;;;13.11;74.44;95517.63;5093172;28;1041;-56
2023/05/03 06:02:15;;;;;;;;;;;;;;;13.18;69.31;95523.16;5093268;28;976;-56
2023/05/03 06:04:42;;;;;;;;;;;;;;;13.10;68.47;95515.94;5095193;28;1088;-56
2023/05/03 06:07:08;;;;;;;;;;;;;;;13.16;69.20;95517.94;5097069;28;1001;-56
2023/05/03 06:09:34;;;;;;;;;;;;;;;13.18;70.70;95521.28;5096801;28;1033;-56
2023/05/03 06:12:00;;;;;;;;;;;;;;;13.47;71.48;95522.66;5095423;28;1980;-55
2023/05/03 06:14:26;;;;;;;;;;;;;;;13.52;68.35;95519.47;5096782;28;1036;-55
2023/05/03 06:16:52;;;;;;;;;;;;;;;13.55;66.58;95514.59;5096595;28;1054;-55
2023/05/03 06:19:18;;;;;;;;;;;;;;;13.62;68.27;95517.41;5095349;28;1060;-55
2023/05/03 06:21:45;;;;;;;;;;;;;;;13.73;67.96;95524.28;5096328;28;1139;-55
2023/05/03 06:24:11;;;;;;;;;;;;;;;13.68;67.57;95532.88;5094244;28;2047;-55
2023/05/03 06:26:37;;;;;;;;;;;;;;;13.67;67.90;95534.69;5096030;28;1122;-55
2023/05/03 06:29:03;;;;;;;;;;;;;;;13.99;65.42;95535.63;5096370;28;997;-54
2023/05/03 06:31:29;;;;;;;;;;;;;;;14.41;64.33;95530.94;5096025;28;1992;-54
2023/05/03 06:33:55;;;;;;;;;;;;;;;14.16;66.87;95539.13;5096048;28;1574;-54
2023/05/03 06:36:21;;;;;;;;;;;;;;;14.00;65.63;95540.03;5096160;28;1053;-53
2023/05/03 06:38:48;;;;;;;;;;;;;;;13.79;66.45;95542.41;5096165;28;934;-55
2023/05/03 06:41:14;;;;;;;;;;;;;;;13.74;66.85;95534.88;5096071;28;1205;-56
2023/05/03 06:43:40;;;;;;;;;;;;;;;13.91;68.28;95534.84;5095880;28;1033;-56
2023/05/03 06:46:06;;;;;;;;;;;;;;;14.03;64.94;95530.75;5096019;28;1043;-51
2023/05/03 06:48:32;;;;;;;;;;;;;;;13.98;62.02;95535.81;5095774;28;1011;-55
2023/05/03 06:50:58;;;;;;;;;;;;;;;13.78;63.68;95536.19;5095806;28;1992;-56
2023/05/03 06:53:24;;;;;;;;;;;;;;;13.75;64.78;95528.47;5094764;28;1041;-56
2023/05/03 06:55:50;;;;;;;;;;;;;;;13.78;64.71;95528.13;5095891;28;973;-56
2023/05/03 06:58:17;;;;;;;;;;;;;;;13.73;63.20;95532.34;5095771;28;1277;-57
2023/05/03 07:00:43;;;;;;;;;;;;;;;13.86;64.24;95544.22;5095660;28;982;-56
2023/05/03 07:03:09;;;;;;;;;;;;;;;13.69;62.09;95539.91;5095621;28;985;-56
2023/05/03 07:05:35;;;;;;;;;;;;;;;13.70;64.18;95538.91;5095483;28;1033;-56
2023/05/03 07:08:02;;;;;;;;;;;;;;;13.86;62.88;95549.59;5095640;28;1040;-56
2023/05/03 07:10:29;;;;;;;;;;;;;;;14.02;62.12;95547.91;5095445;28;1918;-56
2023/05/03 07:12:56;;;;;;;;;;;;;;;14.32;60.82;95548.94;5095324;28;1045;-56
2023/05/03 07:15:22;;;;;;;;;;;;;;;15.10;59.52;95535.59;5095377;28;978;-56
2023/05/03 07:17:48;;;;;;;;;;;;;;;15.99;59.35;95530.44;5095177;28;1053;-56
2023/05/03 07:20:14;;;;;;;;;;;;;;;17.13;55.71;95529.97;5095284;28;1101;-56
2023/05/03 07:22:40;;;;;;;;;;;;;;;17.54;54.85;95529.31;5095052;28;1363;-56
2023/05/03 07:25:07;;;;;;;;;;;;;;;17.13;53.63;95540.78;5095306;28;1000;-56
2023/05/03 07:27:33;;;;;;;;;;;;;;;16.73;54.91;95545.72;5095164;28;981;-56
2023/05/03 07:30:00;;;;;;;;;;;;;;;16.17;56.55;95544.38;5095110;28;1914;-56
2023/05/03 07:32:26;;;;;;;;;;;;;;;16.30;58.22;95543.75;5094906;28;1146;-56
2023/05/03 07:34:52;;;;;;;;;;;;;;;16.57;56.94;95546.78;5095161;28;965;-56
2023/05/03 07:37:20;;;;;;;;;;;;;;;16.81;57.99;95545.63;5095137;28;1089;-56
2023/05/03 07:39:46;;;;;;;;;;;;;;;16.73;56.78;95543.00;5094973;28;977;-57
2023/05/03 07:42:12;;;;;;;;;;;;;;;16.44;57.20;95546.63;5094980;28;1075;-57
2023/05/03 07:44:38;;;;;;;;;;;;;;;16.31;55.89;95541.88;5093643;28;969;-56
2023/05/03 07:47:04;;;;;;;;;;;;;;;16.05;58.28;95547.72;5094754;28;964;-57
2023/05/03 07:49:34;;;;;;;;;;;;;;;15.88;61.31;95547.91;5094745;28;1041;-56
2023/05/03 07:52:00;;;;;;;;;;;;;;;15.74;59.41;95549.56;5094817;28;1894;-56
2023/05/03 07:54:26;;;;;;;;;;;;;;;15.61;59.22;95546.63;5094629;28;1101;-57
2023/05/03 07:56:52;;;;;;;;;;;;;;;15.74;60.79;95544.16;5093424;28;1064;-57
2023/05/03 07:59:19;;;;;;;;;;;;;;;15.85;60.71;95548.28;5094525;28;1019;-56
2023/05/03 08:01:45;;;;;;;;;;;;;;;15.62;62.36;95537.53;5094380;28;1034;-54
2023/05/03 08:04:11;;;;;;;;;;;;;;;15.51;61.93;95541.50;5094679;28;969;-54
2023/05/03 08:06:37;;;;;;;;;;;;;;;15.52;60.87;95545.03;5094453;28;1031;-54
2023/05/03 08:09:03;;;;;;;;;;;;;;;15.55;61.95;95536.56;5094510;28;1012;-55
2023/05/03 08:11:29;;;;;;;;;;;;;;;15.57;61.39;95529.97;5094376;28;1906;-54
2023/05/03 08:13:55;;;;;;;;;;;;;;;15.80;62.52;95540.75;5094190;28;1049;-54
2023/05/03 08:16:22;;;;;;;;;;;;;;;15.85;57.96;95536.66;5094518;28;1066;-54
2023/05/03 08:18:47;;;;;;;;;;;;;;;16.03;58.41;95537.16;5094280;28;973;-56
2023/05/03 08:25:12;;;;;;;;;;;;;;;17.66;52.42;95535.03;5091671;28;1206;-56
2023/05/03 08:27:40;;;;;;;;;;;;;;;18.07;50.63;95537.03;5093431;28;1128;-57
2023/05/03 08:30:07;;;;;;;;;;;;;;;17.65;53.23;95531.50;5093878;28;1987;-57
2023/05/03 08:32:33;;;;;;;;;;;;;;;17.17;53.71;95521.31;5093928;28;1165;-56
2023/05/03 08:34:59;;;;;;;;;;;;;;;17.19;53.19;95526.53;5093919;28;921;-56
2023/05/03 08:37:25;;;;;;;;;;;;;;;17.03;53.40;95522.19;5094217;28;1309;-56
2023/05/03 08:39:51;;;;;;;;;;;;;;;17.61;53.50;95526.69;5093961;28;1056;-57
2023/05/03 08:42:18;;;;;;;;;;;;;;;18.31;52.19;95541.13;5093739;28;1124;-56
2023/05/03 08:44:46;;;;;;;;;;;;;;;19.57;50.07;95540.69;5093664;28;1065;-57
2023/05/03 08:47:13;;;;;;;;;;;;;;;19.54;47.78;95538.41;5093827;28;977;-57
2023/05/03 08:49:40;;;;;;;;;;;;;;;20.18;46.25;95541.53;5093575;28;1120;-57
2023/05/03 08:52:08;;;;;;;;;;;;;;;20.24;44.61;95533.38;5093826;28;1909;-57
2023/05/03 08:54:35;;;;;;;;;;;;;;;19.61;45.15;95539.25;5093516;28;1120;-57
2023/05/03 08:57:01;;;;;;;;;;;;;;;19.18;47.03;95527.91;5093786;28;1048;-57
2023/05/03 08:59:28;;;;;;;;;;;;;;;18.96;48.45;95514.53;5093573;28;1597;-57
2023/05/03 09:01:54;;;;;;;;;;;;;;;19.06;50.32;95504.13;5093399;28;1097;-56
2023/05/03 09:04:30;;;;;;;;;;;;;;;18.76;49.54;95506.31;5093490;28;1121;-57
2023/05/03 09:07:06;;;;;;;;;;;;;;;18.43;46.84;95503.50;5093532;28;1065;-57
2023/05/03 09:09:32;;;;;;;;;;;;;;;18.28;50.56;95493.63;5093453;28;1056;-57
2023/05/03 09:11:58;;;;;;;;;;;;;;;18.43;50.70;95493.50;5093368;28;1992;-57
2023/05/03 09:14:24;;;;;;;;;;;;;;;18.41;48.55;95492.03;5093457;28;966;-57
2023/05/03 09:16:50;;;;;;;;;;;;;;;18.08;46.92;95482.72;5093289;28;1178;-56
2023/05/03 09:19:16;;;;;;;;;;;;;;;18.08;48.98;95485.41;5093380;28;1108;-57
2023/05/03 09:21:43;;;;;;;;;;;;;;;18.17;46.94;95486.06;5093481;28;1029;-57
2023/05/03 09:24:15;;;;;;;;;;;;;;;17.97;47.89;95477.88;5093308;28;1120;-56
2023/05/03 09:26:42;;;;;;;;;;;;;;;18.41;48.99;95471.19;5093387;28;970;-57
2023/05/03 09:29:08;;;;;;;;;;;;;;;18.38;48.26;95474.31;5093356;28;1199;-57
2023/05/03 09:31:35;;;;;;;;;;;;;;;18.50;49.11;95472.69;5093078;28;1992;-57
2023/05/03 09:34:01;;;;;;;;;;;;;;;18.37;48.23;95466.41;5093269;28;1044;-57
2023/05/03 09:36:43;;;;;;;;;;;;;;;18.34;47.22;95475.75;5093228;28;1041;-57
2023/05/03 09:39:15;;;;;;;;;;;;;;;18.50;49.52;95466.47;5094581;28;1048;-57
2023/05/03 09:41:41;;;;;;;;;;;;;;;19.02;47.70;95453.28;5097181;28;984;-57
2023/05/03 09:44:07;;;;;;;;;;;;;;;19.75;45.63;95455.16;5097168;28;957;-57
2023/05/03 09:46:33;;;;;;;;;;;;;;;19.47;45.64;95445.38;5096989;28;933;-57
2023/05/03 09:49:00;;;;;;;;;;;;;;;19.13;45.58;95441.00;5097078;28;1123;-57
2023/05/03 09:51:27;;;;;;;;;;;;;;;19.16;47.53;95440.56;5097172;28;1902;-57
2023/05/03 09:53:55;;;;;;;;;;;;;;;19.02;47.12;95437.84;5095817;28;966;-58
2023/05/03 09:56:25;;;;;;;;;;;;;;;18.96;48.10;95432.44;5097073;28;1016;-57
2023/05/03 09:58:52;;;;;;;;;;;;;;;19.05;48.17;95431.19;5096778;28;1029;-57
2023/05/03 10:01:21;;;;;;;;;;;;;;;19.09;46.98;95440.56;5096833;28;1068;-57
2023/05/03 10:03:51;;;;;;;;;;;;;;;19.45;46.42;95440.16;5096712;28;1112;-57
2023/05/03 10:06:17;;;;;;;;;;;;;;;19.79;46.67;95437.44;5096899;28;1036;-57
2023/05/03 10:08:50;;;;;;;;;;;;;;;20.26;46.54;95432.69;5096707;28;1001;-58
2023/05/03 10:11:17;;;;;;;;;;;;;;;20.71;45.39;95432.72;5096580;28;2345;-57
2023/05/03 10:13:43;;;;;;;;;;;;;;;20.86;45.59;95441.41;5096469;28;1092;-57
2023/05/03 10:16:12;;;;;;;;;;;;;;;20.91;47.04;95429.91;5096783;28;1096;-58
2023/05/03 10:18:44;;;;;;;;;;;;;;;20.75;46.30;95439.41;5096595;28;1359;-58
2023/05/03 10:21:17;;;;;;;;;;;;;;;20.19;45.70;95435.44;5096524;28;1053;-57
2023/05/03 10:24:19;;;;;;;;;;;;;;;20.33;45.92;95424.53;5096178;28;1026;-58
2023/05/03 10:26:46;;;;;;;;;;;;;;;19.98;46.88;95416.75;4994095;28;1427;-56
2023/05/03 10:29:31;;;;;;;;;;;;;;;19.80;47.97;95406.53;5076628;28;1056;-58
2023/05/03 10:31:57;;;;;;;;;;;;;;;19.81;48.02;95405.50;5096130;28;1914;-57
2023/05/03 10:34:24;;;;;;;;;;;;;;;19.85;48.19;95399.44;5095762;28;1363;-57
2023/05/03 10:36:53;;;;;;;;;;;;;;;19.53;48.17;95395.72;5096217;28;968;-57
2023/05/03 10:39:20;;;;;;;;;;;;;;;19.47;49.04;95396.56;5095014;28;1012;-58
2023/05/03 10:41:57;;;;;;;;;;;;;;;19.16;48.58;95391.78;5095869;28;1041;-57
2023/05/03 10:44:27;;;;;;;;;;;;;;;19.25;48.91;95394.06;5096000;28;1064;-58
2023/05/03 10:46:53;;;;;;;;;;;;;;;19.21;50.10;95381.97;5095826;28;1000;-57
2023/05/03 10:49:22;;;;;;;;;;;;;;;19.21;49.58;95383.88;5095651;28;1009;-57
2023/05/03 10:51:49;;;;;;;;;;;;;;;19.18;50.63;95384.28;5095830;28;1979;-58
2023/05/03 10:54:16;;;;;;;;;;;;;;;19.41;49.97;95390.09;5095716;28;1053;-57
2023/05/03 10:56:53;;;;;;;;;;;;;;;19.73;50.31;95392.16;5095725;28;1041;-57
2023/05/03 10:59:19;;;;;;;;;;;;;;;19.81;50.70;95392.78;5095589;28;1124;-57
2023/05/03 11:01:47;;;;;;;;;;;;;;;19.68;48.80;95385.47;5095763;28;1120;-57
2023/05/03 11:04:22;;;;;;;;;;;;;;;19.75;49.63;95387.34;5095745;28;921;-57
2023/05/03 11:06:50;;;;;;;;;;;;;;;19.28;49.26;95390.94;5095422;28;1127;-56
2023/05/03 11:09:17;;;;;;;;;;;;;;;18.88;52.67;95382.81;5095466;28;1109;-57
2023/05/03 11:11:43;;;;;;;;;;;;;;;18.78;50.99;95385.09;5095243;28;1910;-58
2023/05/03 11:14:10;;;;;;;;;;;;;;;18.62;51.46;95372.75;5095348;28;985;-57
2023/05/03 11:16:39;;;;;;;;;;;;;;;18.57;52.20;95380.66;5095406;28;1024;-57
2023/05/03 11:19:05;;;;;;;;;;;;;;;18.67;51.49;95378.38;5094037;28;1041;-57
2023/05/03 11:21:31;;;;;;;;;;;;;;;18.65;51.80;95366.09;5095321;28;953;-57
2023/05/03 11:23:58;;;;;;;;;;;;;;;18.79;52.85;95365.06;5095175;28;1232;-58
2023/05/03 11:26:25;;;;;;;;;;;;;;;19.21;52.20;95356.75;5095080;28;1104;-57
2023/05/03 11:28:52;;;;;;;;;;;;;;;19.30;51.79;95356.34;5094945;28;976;-57
2023/05/03 11:31:19;;;;;;;;;;;;;;;19.18;50.61;95363.44;5095069;28;1996;-58
2023/05/03 11:33:45;;;;;;;;;;;;;;;18.86;51.80;95357.81;5095135;28;1012;-57
2023/05/03 11:36:13;;;;;;;;;;;;;;;19.07;51.95;95355.94;5094942;28;1100;-57
2023/05/03 11:38:39;;;;;;;;;;;;;;;19.42;50.59;95356.50;5094901;28;1044;-57
2023/05/03 11:41:13;;;;;;;;;;;;;;;19.65;50.12;95353.34;5094778;28;1033;-57
2023/05/03 11:43:39;;;;;;;;;;;;;;;19.79;49.39;95343.31;5094743;28;1100;-57
2023/05/03 11:46:07;;;;;;;;;;;;;;;20.31;49.85;95335.16;5094952;28;1031;-57
2023/05/03 11:48:33;;;;;;;;;;;;;;;20.05;48.60;95330.69;5094789;28;1020;-57
2023/05/03 11:51:05;;;;;;;;;;;;;;;19.88;49.38;95330.34;5094597;28;1909;-57
2023/05/03 11:53:31;;;;;;;;;;;;;;;19.70;50.28;95326.41;5094618;28;1040;-57
2023/05/03 11:55:59;;;;;;;;;;;;;;;19.34;51.01;95326.09;5094515;28;953;-57
2023/05/03 11:58:25;;;;;;;;;;;;;;;19.02;50.87;95328.63;5094703;28;1116;-57
2023/05/03 12:00:56;;;;;;;;;;;;;;;18.88;50.88;95330.53;5094075;28;1112;-57
2023/05/03 12:03:22;;;;;;;;;;;;;;;18.80;51.24;95328.84;5094190;28;922;-58
2023/05/03 12:05:50;;;;;;;;;;;;;;;18.84;52.63;95327.41;5094232;28;1053;-58
2023/05/03 12:08:17;;;;;;;;;;;;;;;18.65;52.23;95317.38;5094291;28;1053;-57
2023/05/03 12:10:43;;;;;;;;;;;;;;;18.69;52.48;95324.84;5094277;28;2000;-58
2023/05/03 12:13:10;;;;;;;;;;;;;;;18.53;52.10;95320.69;5094203;28;1084;-58
2023/05/03 12:15:37;;;;;;;;;;;;;;;18.37;53.64;95322.94;5094189;28;1009;-57
2023/05/03 12:18:07;;;;;;;;;;;;;;;18.27;53.79;95326.88;5094206;28;1028;-56
2023/05/03 12:20:35;;;;;;;;;;;;;;;18.07;53.72;95334.94;5094075;28;933;-57
2023/05/03 12:23:02;;;;;;;;;;;;;;;18.00;53.75;95322.41;5094011;28;997;-57
2023/05/03 12:25:28;;;;;;;;;;;;;;;18.00;54.45;95325.94;5053974;28;1052;-57
2023/05/03 12:27:56;;;;;;;;;;;;;;;18.02;54.50;95326.59;5053617;28;1054;-57
2023/05/03 12:30:22;;;;;;;;;;;;;;;17.91;55.89;95346.13;5053553;28;1918;-57
2023/05/03 12:32:49;;;;;;;;;;;;;;;17.66;56.10;95361.97;5053476;28;1158;-58
2023/05/03 12:35:15;;;;;;;;;;;;;;;17.37;58.66;95345.81;5052334;28;1041;-56
2023/05/03 12:37:41;;;;;;;;;;;;;;;17.18;60.63;95355.44;5053430;28;941;-57
2023/05/03 12:40:08;;;;;;;;;;;;;;;17.11;62.55;95353.72;5053728;28;1045;-57
2023/05/03 12:42:34;;;;;;;;;;;;;;;16.98;63.00;95368.00;5053554;28;1084;-56
2023/05/03 12:45:00;;;;;;;;;;;;;;;16.61;66.85;95360.97;5053571;28;1041;-57
2023/05/03 12:47:26;;;;;;;;;;;;;;;16.36;67.67;95372.97;5053563;28;954;-57
2023/05/03 12:49:53;;;;;;;;;;;;;;;15.99;71.49;95369.47;5053250;28;1865;-56
2023/05/03 12:52:20;;;;;;;;;;;;;;;15.88;70.20;95378.06;5053212;28;1906;-55
2023/05/03 12:54:46;;;;;;;;;;;;;;;15.74;73.60;95382.41;5053187;28;1113;-56
2023/05/03 12:57:13;;;;;;;;;;;;;;;15.67;75.44;95373.41;5053434;28;1009;-56
2023/05/03 12:59:40;;;;;;;;;;;;;;;15.52;75.34;95368.00;5053326;28;1123;-56
2023/05/03 13:02:07;;;;;;;;;;;;;;;15.34;74.39;95368.38;5053340;28;1024;-56
2023/05/03 13:04:33;;;;;;;;;;;;;;;15.30;75.43;95369.78;5053197;28;1052;-56